We Are Winnipeg.

Screenshot by Aaron

Come explore the heart of Canada. 


  Upcoming Events

Winnipeg FIR Game Night  April 28, 2024 01:00z

  Top Controllers this Month

Zaid 1347775
10:05

Zachary Collison 1431902
09:31

Ty Treverton 1711875
06:56

Adam Brookman 1669855
04:14

Dylan 1310670
03:54

  Online Controllers

No controllers online.

  Weather

CYWG - Winnipeg / James Armstrong Richardson International Airport   VFR
CYWG 160700Z 12011G17KT 6SM RA OVC064 06/04 A3004 RMK SC8 SLP180

CYXE - Saskatoon John G. Diefenbaker International Airport   VFR
CYXE 160700Z 10021KT 15SM -SHRA FEW020 SCT070 BKN120 08/01 A2970 RMK CU1AC2AC2 -SHRA OCNL SLP069

CYQT - Thunder Bay Airport   VFR
CYQT 160700Z 30003KT 15SM SKC M02/M04 A3018 RMK SLP229

CYQR - Regina International Airport   VFR
CYQR 160700Z 13018G23KT 15SM OVC130 07/00 A2979 RMK AC8 SLP100

CYMJ - Moose Jaw Air Vice Marshal C. M. McEwen Airport   VFR OUTDATED
CYMJ 160041Z 11026G33KT 15SM FEW120 SCT220 BKN300 16/02 A2968 RMK AC2CI1CI4 DENSITY ALT 2858FT LTNG 62 NM W LAST OBS /NEXT 161000 UTC SLP065

CYPG - Portage-la-Prairie / Southport Airport   VFR OUTDATED
CYPG 152200Z 09013G18KT 15SM BKN095 OVC140 12/M02 A3001 RMK AC5AC3 DENSITY ALT 706FT ACC EMBD LAST OBS /NEXT 161100 UTC SLP169